sensor_id;sensor_type;location;lat;lon;timestamp;pressure;altitude;pressure_sealevel;temperature;humidity
68456;BME280;55437;55.046;38.838;2023-08-07T00:01:49;99997.78;;;20.11;79.70
68456;BME280;55437;55.046;38.838;2023-08-07T00:04:15;100002.25;;;20.09;79.59
68456;BME280;55437;55.046;38.838;2023-08-07T00:06:41;100002.47;;;20.06;79.92
68456;BME280;55437;55.046;38.838;2023-08-07T00:09:07;99990.50;;;20.04;80.06
68456;BME280;55437;55.046;38.838;2023-08-07T00:11:33;99992.47;;;20.00;80.11
68456;BME280;55437;55.046;38.838;2023-08-07T00:13:58;99996.00;;;19.99;80.29
68456;BME280;55437;55.046;38.838;2023-08-07T00:16:25;99990.16;;;19.96;80.40
68456;BME280;55437;55.046;38.838;2023-08-07T00:18:50;99992.03;;;19.94;80.47
68456;BME280;55437;55.046;38.838;2023-08-07T00:21:18;99992.16;;;19.92;80.48
68456;BME280;55437;55.046;38.838;2023-08-07T00:23:44;99988.94;;;19.89;80.53
68456;BME280;55437;55.046;38.838;2023-08-07T00:26:09;99987.25;;;19.88;80.61
68456;BME280;55437;55.046;38.838;2023-08-07T00:28:35;99990.91;;;19.85;80.64
68456;BME280;55437;55.046;38.838;2023-08-07T00:31:01;99980.66;;;19.82;80.97
68456;BME280;55437;55.046;38.838;2023-08-07T00:33:27;99985.19;;;19.80;80.91
68456;BME280;55437;55.046;38.838;2023-08-07T00:35:53;99988.09;;;19.75;81.15
68456;BME280;55437;55.046;38.838;2023-08-07T00:38:19;99982.97;;;19.74;81.29
68456;BME280;55437;55.046;38.838;2023-08-07T00:40:44;99975.34;;;19.71;81.28
68456;BME280;55437;55.046;38.838;2023-08-07T00:43:10;99977.34;;;19.67;81.61
68456;BME280;55437;55.046;38.838;2023-08-07T00:45:43;99980.06;;;19.66;81.62
68456;BME280;55437;55.046;38.838;2023-08-07T00:48:11;99981.19;;;19.62;81.70
68456;BME280;55437;55.046;38.838;2023-08-07T00:50:39;99979.63;;;19.59;81.81
68456;BME280;55437;55.046;38.838;2023-08-07T00:53:06;99979.00;;;19.56;82.11
68456;BME280;55437;55.046;38.838;2023-08-07T00:55:32;99970.47;;;19.54;82.13
68456;BME280;55437;55.046;38.838;2023-08-07T00:57:58;99976.59;;;19.53;82.01
68456;BME280;55437;55.046;38.838;2023-08-07T01:00:26;99975.88;;;19.51;82.23
68456;BME280;55437;55.046;38.838;2023-08-07T01:02:56;99982.28;;;19.45;82.42
68456;BME280;55437;55.046;38.838;2023-08-07T01:05:24;99974.59;;;19.43;82.62
68456;BME280;55437;55.046;38.838;2023-08-07T01:07:52;99972.09;;;19.42;82.40
68456;BME280;55437;55.046;38.838;2023-08-07T01:10:48;99966.97;;;19.40;82.38
68456;BME280;55437;55.046;38.838;2023-08-07T01:13:27;99963.72;;;19.37;82.40
68456;BME280;55437;55.046;38.838;2023-08-07T01:15:59;99964.75;;;19.34;82.63
68456;BME280;55437;55.046;38.838;2023-08-07T01:18:28;99959.66;;;19.33;82.56
68456;BME280;55437;55.046;38.838;2023-08-07T01:20:55;99950.28;;;19.30;82.55
68456;BME280;55437;55.046;38.838;2023-08-07T01:23:21;99961.63;;;19.29;82.54
68456;BME280;55437;55.046;38.838;2023-08-07T01:25:47;99954.75;;;19.28;82.72
68456;BME280;55437;55.046;38.838;2023-08-07T01:28:27;99954.13;;;19.25;82.69
68456;BME280;55437;55.046;38.838;2023-08-07T01:30:58;99952.53;;;19.22;82.79
68456;BME280;55437;55.046;38.838;2023-08-07T01:33:54;99954.31;;;19.22;82.78
68456;BME280;55437;55.046;38.838;2023-08-07T01:36:23;99951.00;;;19.20;82.62
68456;BME280;55437;55.046;38.838;2023-08-07T01:38:50;99963.19;;;19.19;83.06
68456;BME280;55437;55.046;38.838;2023-08-07T01:41:18;99957.00;;;19.20;82.84
68456;BME280;55437;55.046;38.838;2023-08-07T01:43:46;99956.06;;;19.21;82.67
68456;BME280;55437;55.046;38.838;2023-08-07T01:46:12;99959.53;;;19.22;82.90
68456;BME280;55437;55.046;38.838;2023-08-07T01:48:38;99950.25;;;19.18;82.74
68456;BME280;55437;55.046;38.838;2023-08-07T01:51:04;99957.25;;;19.17;82.71
68456;BME280;55437;55.046;38.838;2023-08-07T01:53:29;99962.22;;;19.20;82.80
68456;BME280;55437;55.046;38.838;2023-08-07T01:55:58;99962.25;;;19.33;82.40
68456;BME280;55437;55.046;38.838;2023-08-07T01:58:23;99958.19;;;19.56;81.58
68456;BME280;55437;55.046;38.838;2023-08-07T02:01:08;99961.09;;;19.89;80.58
68456;BME280;55437;55.046;38.838;2023-08-07T02:03:34;99960.84;;;20.18;79.71
68456;BME280;55437;55.046;38.838;2023-08-07T02:05:59;99965.63;;;20.49;78.14
68456;BME280;55437;55.046;38.838;2023-08-07T02:08:26;99970.50;;;20.77;77.23
68456;BME280;55437;55.046;38.838;2023-08-07T02:10:52;99961.09;;;21.11;75.93
68456;BME280;55437;55.046;38.838;2023-08-07T02:13:20;99949.59;;;21.49;74.69
68456;BME280;55437;55.046;38.838;2023-08-07T02:15:46;99954.88;;;21.82;73.30
68456;BME280;55437;55.046;38.838;2023-08-07T02:18:13;99967.38;;;22.23;71.71
68456;BME280;55437;55.046;38.838;2023-08-07T02:20:39;99955.44;;;22.64;70.14
68456;BME280;55437;55.046;38.838;2023-08-07T02:23:05;99952.25;;;23.04;68.73
68456;BME280;55437;55.046;38.838;2023-08-07T02:25:30;99958.09;;;23.49;67.24
68456;BME280;55437;55.046;38.838;2023-08-07T02:27:56;99957.53;;;23.87;65.66
68456;BME280;55437;55.046;38.838;2023-08-07T02:30:22;99951.16;;;24.20;64.02
68456;BME280;55437;55.046;38.838;2023-08-07T02:32:49;99963.63;;;24.27;63.41
68456;BME280;55437;55.046;38.838;2023-08-07T02:35:15;99961.91;;;24.47;62.77
68456;BME280;55437;55.046;38.838;2023-08-07T02:37:41;99955.34;;;24.91;61.63
68456;BME280;55437;55.046;38.838;2023-08-07T02:40:08;99953.16;;;25.25;60.21
68456;BME280;55437;55.046;38.838;2023-08-07T02:42:34;99952.56;;;25.51;59.24
68456;BME280;55437;55.046;38.838;2023-08-07T02:45:01;99961.94;;;25.82;58.45
68456;BME280;55437;55.046;38.838;2023-08-07T02:47:30;99953.19;;;25.91;57.61
68456;BME280;55437;55.046;38.838;2023-08-07T02:49:56;99952.09;;;26.48;56.58
68456;BME280;55437;55.046;38.838;2023-08-07T02:52:22;99953.34;;;27.07;54.81
68456;BME280;55437;55.046;38.838;2023-08-07T02:54:48;99955.06;;;27.34;53.57
68456;BME280;55437;55.046;38.838;2023-08-07T02:57:14;99946.78;;;27.73;52.68
68456;BME280;55437;55.046;38.838;2023-08-07T02:59:39;99948.47;;;28.16;51.75
68456;BME280;55437;55.046;38.838;2023-08-07T03:02:05;99949.09;;;28.44;50.71
68456;BME280;55437;55.046;38.838;2023-08-07T03:04:31;99943.72;;;28.78;50.01
68456;BME280;55437;55.046;38.838;2023-08-07T03:06:57;99943.09;;;29.00;49.41
68456;BME280;55437;55.046;38.838;2023-08-07T03:09:23;99948.41;;;29.24;48.47
68456;BME280;55437;55.046;38.838;2023-08-07T03:11:48;99942.28;;;29.48;47.94
68456;BME280;55437;55.046;38.838;2023-08-07T03:14:15;99941.78;;;29.53;47.80
68456;BME280;55437;55.046;38.838;2023-08-07T03:16:40;99943.78;;;28.94;48.63
68456;BME280;55437;55.046;38.838;2023-08-07T03:19:06;99938.41;;;28.11;50.08
68456;BME280;55437;55.046;38.838;2023-08-07T03:21:32;99937.38;;;27.27;52.04
68456;BME280;55437;55.046;38.838;2023-08-07T03:23:58;99937.16;;;26.67;53.36
68456;BME280;55437;55.046;38.838;2023-08-07T03:26:24;99933.13;;;26.17;54.89
68456;BME280;55437;55.046;38.838;2023-08-07T03:28:50;99933.03;;;25.63;56.07
68456;BME280;55437;55.046;38.838;2023-08-07T03:31:16;99942.22;;;25.30;57.33
68456;BME280;55437;55.046;38.838;2023-08-07T03:33:42;99939.97;;;24.67;59.00
68456;BME280;55437;55.046;38.838;2023-08-07T03:36:09;99936.66;;;24.65;59.37
68456;BME280;55437;55.046;38.838;2023-08-07T03:38:35;99948.81;;;24.57;59.69
68456;BME280;55437;55.046;38.838;2023-08-07T03:41:02;99951.53;;;24.46;60.09
68456;BME280;55437;55.046;38.838;2023-08-07T03:43:30;99940.25;;;24.15;60.88
68456;BME280;55437;55.046;38.838;2023-08-07T03:45:56;99937.06;;;24.21;60.93
68456;BME280;55437;55.046;38.838;2023-08-07T03:48:24;99933.28;;;24.34;60.59
68456;BME280;55437;55.046;38.838;2023-08-07T03:50:51;99940.34;;;24.44;60.53
68456;BME280;55437;55.046;38.838;2023-08-07T03:53:17;99929.19;;;24.51;60.25
68456;BME280;55437;55.046;38.838;2023-08-07T03:55:50;99939.81;;;24.50;60.23
68456;BME280;55437;55.046;38.838;2023-08-07T03:58:18;99933.75;;;24.49;59.99
68456;BME280;55437;55.046;38.838;2023-08-07T04:00:44;99930.56;;;24.65;59.55
68456;BME280;55437;55.046;38.838;2023-08-07T04:03:10;99930.44;;;24.76;59.27
68456;BME280;55437;55.046;38.838;2023-08-07T04:05:36;99924.66;;;24.82;59.03
68456;BME280;55437;55.046;38.838;2023-08-07T04:08:03;99925.63;;;24.81;58.92
68456;BME280;55437;55.046;38.838;2023-08-07T04:10:28;99921.63;;;24.87;58.95
68456;BME280;55437;55.046;38.838;2023-08-07T04:12:54;99923.94;;;24.90;58.85
68456;BME280;55437;55.046;38.838;2023-08-07T04:15:21;99920.34;;;24.91;58.71
68456;BME280;55437;55.046;38.838;2023-08-07T04:17:47;99921.78;;;25.04;58.28
68456;BME280;55437;55.046;38.838;2023-08-07T04:20:12;99923.41;;;25.15;58.04
68456;BME280;55437;55.046;38.838;2023-08-07T04:22:38;99926.03;;;25.25;57.90
68456;BME280;55437;55.046;38.838;2023-08-07T04:25:04;99923.16;;;25.18;57.79
68456;BME280;55437;55.046;38.838;2023-08-07T04:27:31;99913.75;;;25.16;57.94
68456;BME280;55437;55.046;38.838;2023-08-07T04:29:57;99928.69;;;25.15;58.02
68456;BME280;55437;55.046;38.838;2023-08-07T04:32:23;99927.84;;;25.24;58.04
68456;BME280;55437;55.046;38.838;2023-08-07T04:34:49;99920.91;;;25.33;57.95
68456;BME280;55437;55.046;38.838;2023-08-07T04:37:15;99919.38;;;25.40;57.60
68456;BME280;55437;55.046;38.838;2023-08-07T04:39:41;99926.53;;;25.57;57.46
68456;BME280;55437;55.046;38.838;2023-08-07T04:42:06;99917.22;;;25.82;56.40
68456;BME280;55437;55.046;38.838;2023-08-07T04:44:33;99932.19;;;26.09;55.86
68456;BME280;55437;55.046;38.838;2023-08-07T04:46:58;99932.00;;;26.30;54.67
68456;BME280;55437;55.046;38.838;2023-08-07T04:49:24;99937.81;;;26.69;53.76
68456;BME280;55437;55.046;38.838;2023-08-07T04:51:50;99930.31;;;27.27;52.67
68456;BME280;55437;55.046;38.838;2023-08-07T04:54:16;99929.16;;;27.73;51.39
68456;BME280;55437;55.046;38.838;2023-08-07T04:56:42;99934.91;;;28.45;50.09
68456;BME280;55437;55.046;38.838;2023-08-07T04:59:10;99931.38;;;29.02;48.63
68456;BME280;55437;55.046;38.838;2023-08-07T05:01:36;99924.56;;;29.65;47.17
68456;BME280;55437;55.046;38.838;2023-08-07T05:04:02;99925.16;;;29.99;45.85
68456;BME280;55437;55.046;38.838;2023-08-07T05:06:30;99919.25;;;29.81;46.06
68456;BME280;55437;55.046;38.838;2023-08-07T05:08:56;99921.47;;;29.53;45.98
68456;BME280;55437;55.046;38.838;2023-08-07T05:11:21;99910.47;;;29.72;45.75
68456;BME280;55437;55.046;38.838;2023-08-07T05:13:47;99910.91;;;29.92;45.64
68456;BME280;55437;55.046;38.838;2023-08-07T05:16:13;99908.81;;;29.71;45.65
68456;BME280;55437;55.046;38.838;2023-08-07T05:18:39;99904.03;;;29.75;45.79
68456;BME280;55437;55.046;38.838;2023-08-07T05:21:05;99901.81;;;30.03;44.95
68456;BME280;55437;55.046;38.838;2023-08-07T05:23:34;99901.25;;;30.16;44.31
68456;BME280;55437;55.046;38.838;2023-08-07T05:26:00;99901.25;;;30.07;44.11
68456;BME280;55437;55.046;38.838;2023-08-07T05:28:27;99901.38;;;29.75;44.76
68456;BME280;55437;55.046;38.838;2023-08-07T05:30:53;99908.28;;;29.84;44.72
68456;BME280;55437;55.046;38.838;2023-08-07T05:33:19;99894.47;;;30.13;44.25
68456;BME280;55437;55.046;38.838;2023-08-07T05:35:45;99899.69;;;30.29;43.38
68456;BME280;55437;55.046;38.838;2023-08-07T05:38:11;99899.63;;;30.37;42.92
68456;BME280;55437;55.046;38.838;2023-08-07T05:40:37;99893.63;;;30.74;42.12
68456;BME280;55437;55.046;38.838;2023-08-07T05:43:03;99896.00;;;31.44;40.99
68456;BME280;55437;55.046;38.838;2023-08-07T05:45:29;99895.94;;;31.82;40.18
68456;BME280;55437;55.046;38.838;2023-08-07T05:47:54;99888.69;;;31.61;40.54
68456;BME280;55437;55.046;38.838;2023-08-07T05:50:20;99894.09;;;31.97;40.07
68456;BME280;55437;55.046;38.838;2023-08-07T05:52:46;99875.88;;;31.79;40.14
68456;BME280;55437;55.046;38.838;2023-08-07T05:55:12;99880.50;;;32.07;39.95
68456;BME280;55437;55.046;38.838;2023-08-07T05:57:38;99880.28;;;32.59;38.78
68456;BME280;55437;55.046;38.838;2023-08-07T06:00:04;99869.72;;;33.15;37.79
68456;BME280;55437;55.046;38.838;2023-08-07T06:02:38;99862.44;;;33.23;37.20
68456;BME280;55437;55.046;38.838;2023-08-07T06:05:04;99873.50;;;33.89;36.86
68456;BME280;55437;55.046;38.838;2023-08-07T06:07:30;99864.56;;;34.17;36.04
68456;BME280;55437;55.046;38.838;2023-08-07T06:09:56;99870.28;;;34.88;34.66
68456;BME280;55437;55.046;38.838;2023-08-07T06:12:22;99875.81;;;34.99;34.57
68456;BME280;55437;55.046;38.838;2023-08-07T06:14:48;99865.88;;;34.54;34.69
68456;BME280;55437;55.046;38.838;2023-08-07T06:17:14;99868.75;;;34.39;34.40
68456;BME280;55437;55.046;38.838;2023-08-07T06:19:40;99869.34;;;34.35;34.17
68456;BME280;55437;55.046;38.838;2023-08-07T06:22:06;99863.97;;;34.21;34.25
68456;BME280;55437;55.046;38.838;2023-08-07T06:24:32;99870.59;;;34.45;33.31
68456;BME280;55437;55.046;38.838;2023-08-07T06:26:58;99859.19;;;34.84;33.08
68456;BME280;55437;55.046;38.838;2023-08-07T06:29:25;99851.34;;;34.69;33.41
68456;BME280;55437;55.046;38.838;2023-08-07T06:31:51;99850.34;;;34.97;33.15
68456;BME280;55437;55.046;38.838;2023-08-07T06:34:17;99856.00;;;35.53;32.65
68456;BME280;55437;55.046;38.838;2023-08-07T06:36:43;99846.97;;;35.54;32.56
68456;BME280;55437;55.046;38.838;2023-08-07T06:39:10;99856.44;;;35.50;32.55
68456;BME280;55437;55.046;38.838;2023-08-07T06:41:37;99863.50;;;34.98;33.00
68456;BME280;55437;55.046;38.838;2023-08-07T06:44:03;99848.09;;;34.81;32.99
68456;BME280;55437;55.046;38.838;2023-08-07T06:46:29;99850.97;;;33.98;33.48
68456;BME280;55437;55.046;38.838;2023-08-07T06:49:14;99860.53;;;34.27;33.16
68456;BME280;55437;55.046;38.838;2023-08-07T06:51:39;99843.34;;;34.50;33.16
68456;BME280;55437;55.046;38.838;2023-08-07T06:54:05;99842.72;;;34.54;33.13
68456;BME280;55437;55.046;38.838;2023-08-07T06:56:32;99833.28;;;34.58;32.78
68456;BME280;55437;55.046;38.838;2023-08-07T06:58:58;99834.53;;;34.95;32.27
68456;BME280;55437;55.046;38.838;2023-08-07T07:01:24;99843.84;;;35.64;31.90
68456;BME280;55437;55.046;38.838;2023-08-07T07:03:50;99841.25;;;36.02;31.33
68456;BME280;55437;55.046;38.838;2023-08-07T07:06:37;99836.16;;;36.32;30.72
68456;BME280;55437;55.046;38.838;2023-08-07T07:09:03;99831.81;;;35.48;31.47
68456;BME280;55437;55.046;38.838;2023-08-07T07:11:29;99837.81;;;34.97;32.04
68456;BME280;55437;55.046;38.838;2023-08-07T07:13:55;99824.84;;;35.21;31.72
68456;BME280;55437;55.046;38.838;2023-08-07T07:16:21;99835.75;;;35.90;31.58
68456;BME280;55437;55.046;38.838;2023-08-07T07:18:49;99836.69;;;36.09;31.02
68456;BME280;55437;55.046;38.838;2023-08-07T07:21:14;99829.44;;;35.85;30.69
68456;BME280;55437;55.046;38.838;2023-08-07T07:23:40;99834.50;;;35.35;30.71
68456;BME280;55437;55.046;38.838;2023-08-07T07:26:06;99826.47;;;35.48;30.86
68456;BME280;55437;55.046;38.838;2023-08-07T07:28:32;99825.25;;;35.31;31.21
68456;BME280;55437;55.046;38.838;2023-08-07T07:30:58;99814.38;;;35.32;30.48
68456;BME280;55437;55.046;38.838;2023-08-07T07:33:24;99814.81;;;35.10;30.64
68456;BME280;55437;55.046;38.838;2023-08-07T07:35:53;99813.34;;;35.20;30.89
68456;BME280;55437;55.046;38.838;2023-08-07T07:38:20;99812.59;;;34.80;31.57
68456;BME280;55437;55.046;38.838;2023-08-07T07:40:46;99813.38;;;35.14;31.97
68456;BME280;55437;55.046;38.838;2023-08-07T07:43:12;99807.75;;;35.48;30.77
68456;BME280;55437;55.046;38.838;2023-08-07T07:45:38;99796.09;;;35.23;30.49
68456;BME280;55437;55.046;38.838;2023-08-07T07:48:04;99807.72;;;35.61;30.38
68456;BME280;55437;55.046;38.838;2023-08-07T07:50:31;99809.53;;;35.74;29.88
68456;BME280;55437;55.046;38.838;2023-08-07T07:53:16;99791.84;;;35.66;29.52
68456;BME280;55437;55.046;38.838;2023-08-07T07:55:48;99783.63;;;35.74;29.47
68456;BME280;55437;55.046;38.838;2023-08-07T07:58:32;99793.13;;;35.57;29.91
68456;BME280;55437;55.046;38.838;2023-08-07T08:00:57;99794.47;;;35.28;29.44
68456;BME280;55437;55.046;38.838;2023-08-07T08:03:48;99798.41;;;35.26;29.76
68456;BME280;55437;55.046;38.838;2023-08-07T08:06:17;99782.59;;;35.04;30.17
68456;BME280;55437;55.046;38.838;2023-08-07T08:08:43;99800.06;;;34.87;30.26
68456;BME280;55437;55.046;38.838;2023-08-07T08:11:13;99784.06;;;34.87;29.96
68456;BME280;55437;55.046;38.838;2023-08-07T08:13:39;99779.34;;;34.63;30.33
68456;BME280;55437;55.046;38.838;2023-08-07T08:16:06;99784.03;;;34.74;30.72
68456;BME280;55437;55.046;38.838;2023-08-07T08:18:32;99786.09;;;34.92;30.77
68456;BME280;55437;55.046;38.838;2023-08-07T08:20:58;99789.16;;;34.69;30.51
68456;BME280;55437;55.046;38.838;2023-08-07T08:23:24;99784.44;;;34.71;30.84
68456;BME280;55437;55.046;38.838;2023-08-07T08:25:50;99781.38;;;34.67;30.63
68456;BME280;55437;55.046;38.838;2023-08-07T08:28:17;99777.28;;;34.98;31.02
68456;BME280;55437;55.046;38.838;2023-08-07T08:30:43;99780.09;;;35.16;31.14
68456;BME280;55437;55.046;38.838;2023-08-07T08:33:09;99782.41;;;34.99;30.17
68456;BME280;55437;55.046;38.838;2023-08-07T08:35:38;99779.53;;;34.68;30.39
68456;BME280;55437;55.046;38.838;2023-08-07T08:38:04;99765.97;;;34.30;30.94
68456;BME280;55437;55.046;38.838;2023-08-07T08:40:30;99764.34;;;34.68;30.61
68456;BME280;55437;55.046;38.838;2023-08-07T08:43:15;99760.44;;;34.71;30.45
68456;BME280;55437;55.046;38.838;2023-08-07T08:45:42;99765.59;;;34.46;30.73
68456;BME280;55437;55.046;38.838;2023-08-07T08:48:11;99765.75;;;34.12;31.82
68456;BME280;55437;55.046;38.838;2023-08-07T08:50:42;99755.72;;;33.59;32.53
68456;BME280;55437;55.046;38.838;2023-08-07T08:53:09;99759.03;;;33.20;33.54
68456;BME280;55437;55.046;38.838;2023-08-07T08:55:36;99755.66;;;32.49;33.71
68456;BME280;55437;55.046;38.838;2023-08-07T08:58:02;99750.75;;;32.25;34.84
68456;BME280;55437;55.046;38.838;2023-08-07T09:00:28;99747.94;;;32.12;34.76
68456;BME280;55437;55.046;38.838;2023-08-07T09:02:57;99749.06;;;32.03;35.39
68456;BME280;55437;55.046;38.838;2023-08-07T09:05:24;99762.28;;;31.75;35.45
68456;BME280;55437;55.046;38.838;2023-08-07T09:07:50;99760.13;;;31.85;35.90
68456;BME280;55437;55.046;38.838;2023-08-07T09:10:16;99746.84;;;31.64;35.72
68456;BME280;55437;55.046;38.838;2023-08-07T09:12:53;99740.41;;;31.58;35.93
68456;BME280;55437;55.046;38.838;2023-08-07T09:15:23;99762.09;;;31.47;35.93
68456;BME280;55437;55.046;38.838;2023-08-07T09:17:50;99747.78;;;31.27;36.11
68456;BME280;55437;55.046;38.838;2023-08-07T09:20:18;99750.69;;;31.17;36.89
68456;BME280;55437;55.046;38.838;2023-08-07T09:22:45;99735.78;;;31.16;36.87
68456;BME280;55437;55.046;38.838;2023-08-07T09:25:34;99739.50;;;31.07;37.69
68456;BME280;55437;55.046;38.838;2023-08-07T09:28:05;99743.97;;;30.92;37.80
68456;BME280;55437;55.046;38.838;2023-08-07T09:30:34;99738.41;;;31.01;37.28
68456;BME280;55437;55.046;38.838;2023-08-07T09:33:01;99739.69;;;31.05;37.77
68456;BME280;55437;55.046;38.838;2023-08-07T09:35:29;99735.00;;;30.93;38.29
68456;BME280;55437;55.046;38.838;2023-08-07T09:37:57;99739.69;;;30.91;37.66
68456;BME280;55437;55.046;38.838;2023-08-07T09:40:24;99736.09;;;30.84;38.26
68456;BME280;55437;55.046;38.838;2023-08-07T09:42:52;99732.56;;;30.91;38.09
68456;BME280;55437;55.046;38.838;2023-08-07T09:45:26;99734.81;;;30.65;38.50
68456;BME280;55437;55.046;38.838;2023-08-07T09:48:03;99734.03;;;30.79;39.23
68456;BME280;55437;55.046;38.838;2023-08-07T09:50:30;99726.16;;;30.86;38.55
68456;BME280;55437;55.046;38.838;2023-08-07T09:52:58;99721.56;;;30.79;38.82
68456;BME280;55437;55.046;38.838;2023-08-07T09:55:25;99719.28;;;30.76;38.82
68456;BME280;55437;55.046;38.838;2023-08-07T09:57:55;99722.84;;;30.84;39.66
68456;BME280;55437;55.046;38.838;2023-08-07T10:00:21;99709.88;;;30.89;39.88
68456;BME280;55437;55.046;38.838;2023-08-07T10:02:49;99713.53;;;30.88;39.60
68456;BME280;55437;55.046;38.838;2023-08-07T10:05:18;99714.00;;;30.91;39.50
68456;BME280;55437;55.046;38.838;2023-08-07T10:07:44;99714.25;;;30.96;39.48
68456;BME280;55437;55.046;38.838;2023-08-07T10:10:12;99707.22;;;30.89;39.37
68456;BME280;55437;55.046;38.838;2023-08-07T10:12:38;99707.31;;;30.80;39.63
68456;BME280;55437;55.046;38.838;2023-08-07T10:15:05;99707.88;;;30.76;39.12
68456;BME280;55437;55.046;38.838;2023-08-07T10:17:33;99715.53;;;30.71;39.62
68456;BME280;55437;55.046;38.838;2023-08-07T10:20:00;99712.63;;;30.66;40.14
68456;BME280;55437;55.046;38.838;2023-08-07T10:22:29;99697.06;;;30.63;39.75
68456;BME280;55437;55.046;38.838;2023-08-07T10:25:01;99705.66;;;30.65;39.70
68456;BME280;55437;55.046;38.838;2023-08-07T10:27:36;99692.03;;;30.53;39.73
68456;BME280;55437;55.046;38.838;2023-08-07T10:30:07;99695.19;;;30.49;39.72
68456;BME280;55437;55.046;38.838;2023-08-07T10:32:35;99679.38;;;30.40;39.91
68456;BME280;55437;55.046;38.838;2023-08-07T10:35:05;99684.50;;;30.42;40.26
68456;BME280;55437;55.046;38.838;2023-08-07T10:37:41;99676.47;;;30.50;40.28
68456;BME280;55437;55.046;38.838;2023-08-07T10:40:14;99675.56;;;30.58;40.49
68456;BME280;55437;55.046;38.838;2023-08-07T10:45:24;99678.41;;;30.56;39.56
68456;BME280;55437;55.046;38.838;2023-08-07T10:48:06;99679.34;;;30.63;39.60
68456;BME280;55437;55.046;38.838;2023-08-07T10:53:31;99669.44;;;30.57;40.48
68456;BME280;55437;55.046;38.838;2023-08-07T10:56:18;99648.66;;;30.46;40.78
68456;BME280;55437;55.046;38.838;2023-08-07T10:58:55;99664.94;;;30.43;40.57
68456;BME280;55437;55.046;38.838;2023-08-07T11:06:24;99645.75;;;30.41;41.32
68456;BME280;55437;55.046;38.838;2023-08-07T11:08:52;99644.75;;;30.42;41.08
68456;BME280;55437;55.046;38.838;2023-08-07T11:11:18;99637.97;;;30.39;40.60
68456;BME280;55437;55.046;38.838;2023-08-07T11:14:03;99651.06;;;30.41;41.18
68456;BME280;55437;55.046;38.838;2023-08-07T11:16:30;99641.16;;;30.35;40.63
68456;BME280;55437;55.046;38.838;2023-08-07T11:18:55;99642.56;;;30.31;40.72
68456;BME280;55437;55.046;38.838;2023-08-07T11:21:23;99644.81;;;30.34;41.02
68456;BME280;55437;55.046;38.838;2023-08-07T11:23:51;99639.16;;;30.37;41.07
68456;BME280;55437;55.046;38.838;2023-08-07T11:26:18;99644.56;;;30.29;41.30
68456;BME280;55437;55.046;38.838;2023-08-07T11:28:49;99642.81;;;30.36;41.08
68456;BME280;55437;55.046;38.838;2023-08-07T11:31:15;99634.03;;;30.35;41.26
68456;BME280;55437;55.046;38.838;2023-08-07T11:33:42;99631.94;;;30.45;41.20
68456;BME280;55437;55.046;38.838;2023-08-07T11:36:13;99631.22;;;30.52;41.93
68456;BME280;55437;55.046;38.838;2023-08-07T11:38:41;99633.56;;;30.55;41.27
68456;BME280;55437;55.046;38.838;2023-08-07T11:41:12;99620.09;;;30.56;41.06
68456;BME280;55437;55.046;38.838;2023-08-07T11:43:39;99625.41;;;30.56;40.86
68456;BME280;55437;55.046;38.838;2023-08-07T11:46:07;99627.94;;;30.50;40.72
68456;BME280;55437;55.046;38.838;2023-08-07T11:48:35;99628.47;;;30.45;40.74
68456;BME280;55437;55.046;38.838;2023-08-07T11:51:03;99627.84;;;30.43;41.10
68456;BME280;55437;55.046;38.838;2023-08-07T11:53:38;99622.00;;;30.48;40.74
68456;BME280;55437;55.046;38.838;2023-08-07T11:56:12;99624.28;;;30.51;40.61
68456;BME280;55437;55.046;38.838;2023-08-07T11:58:43;99628.28;;;30.47;41.75
68456;BME280;55437;55.046;38.838;2023-08-07T12:01:13;99618.78;;;30.37;41.11
68456;BME280;55437;55.046;38.838;2023-08-07T12:03:51;99612.97;;;30.42;41.40
68456;BME280;55437;55.046;38.838;2023-08-07T12:06:21;99612.13;;;30.41;41.32
68456;BME280;55437;55.046;38.838;2023-08-07T12:08:49;99615.97;;;30.39;40.48
68456;BME280;55437;55.046;38.838;2023-08-07T12:11:19;99613.84;;;30.34;40.55
68456;BME280;55437;55.046;38.838;2023-08-07T12:13:47;99604.81;;;30.43;40.64
68456;BME280;55437;55.046;38.838;2023-08-07T12:16:14;99613.22;;;30.47;40.76
68456;BME280;55437;55.046;38.838;2023-08-07T12:18:51;99612.84;;;30.50;41.11
68456;BME280;55437;55.046;38.838;2023-08-07T12:21:21;99604.09;;;30.50;40.79
68456;BME280;55437;55.046;38.838;2023-08-07T12:23:56;99606.75;;;30.50;40.84
68456;BME280;55437;55.046;38.838;2023-08-07T12:26:22;99597.69;;;30.44;40.81
68456;BME280;55437;55.046;38.838;2023-08-07T12:28:48;99600.25;;;30.37;40.59
68456;BME280;55437;55.046;38.838;2023-08-07T12:31:15;99612.75;;;30.29;40.23
68456;BME280;55437;55.046;38.838;2023-08-07T12:33:44;99599.69;;;30.27;40.82
68456;BME280;55437;55.046;38.838;2023-08-07T12:36:10;99595.88;;;30.30;41.04
68456;BME280;55437;55.046;38.838;2023-08-07T12:38:41;99595.31;;;30.34;41.04
68456;BME280;55437;55.046;38.838;2023-08-07T12:41:07;99586.91;;;30.31;40.92
68456;BME280;55437;55.046;38.838;2023-08-07T12:43:33;99590.66;;;30.36;41.18
68456;BME280;55437;55.046;38.838;2023-08-07T12:45:59;99592.31;;;30.37;41.36
68456;BME280;55437;55.046;38.838;2023-08-07T12:48:28;99588.91;;;30.43;41.29
68456;BME280;55437;55.046;38.838;2023-08-07T12:50:54;99588.28;;;30.41;40.90
68456;BME280;55437;55.046;38.838;2023-08-07T12:53:21;99566.28;;;30.41;40.44
68456;BME280;55437;55.046;38.838;2023-08-07T12:55:47;99569.94;;;30.40;40.87
68456;BME280;55437;55.046;38.838;2023-08-07T12:58:13;99567.16;;;30.33;41.07
68456;BME280;55437;55.046;38.838;2023-08-07T13:00:42;99564.06;;;30.30;40.74
68456;BME280;55437;55.046;38.838;2023-08-07T13:03:07;99555.84;;;30.25;41.31
68456;BME280;55437;55.046;38.838;2023-08-07T13:05:33;99564.16;;;30.22;41.03